CheckWX is a tool to help pilots better visualize weather data.  It is not intended as a substitute for an official pre-flight weather briefing.

10:41:49 UTC

KFFL METAR
Fairfield Municipal Airport
Fairfield, Iowa, USA
Current

27 mins ago

KFFL 171015Z AUTO 12005KT 10SM CLR 20/19 A3009 RMK A01
Observed
Sep-17 @ 10:15 UTC
Wind
  • 120° at 5 KTS
Visibility
10 SM
Flight Rules
VFR
Cloud Levels
  • Clear skies
Temperature
20°C / 68°F
Dewpoint
19°C / 66°F
Humidity
94%
Altimeter
30.09" Hg
Pressure
1018.92 hPa
Previous

47 mins ago

KFFL 170955Z AUTO 12007KT 10SM CLR 20/20 A3009 RMK A01
Observed
Sep-17 @ 09:55 UTC
Wind
  • 120° at 7 KTS
Visibility
10 SM
Flight Rules
VFR
Cloud Levels
  • Clear skies
Temperature
20°C / 68°F
Dewpoint
20°C / 68°F
Humidity
100%
Altimeter
30.09" Hg
Pressure
1018.92 hPa
Previous

1 hour ago

KFFL 170935Z AUTO 12006KT 10SM CLR 20/20 A3009 RMK A01
Observed
Sep-17 @ 09:35 UTC
Wind
  • 120° at 6 KTS
Visibility
10 SM
Flight Rules
VFR
Cloud Levels
  • Clear skies
Temperature
20°C / 68°F
Dewpoint
20°C / 68°F
Humidity
100%
Altimeter
30.09" Hg
Pressure
1018.92 hPa